sensor_id;sensor_type;location;lat;lon;timestamp;temperature;humidity
60309;DHT22;50313;52.894;6.492;2022-08-19T00:01:42;15.00;99.90
60309;DHT22;50313;52.894;6.492;2022-08-19T00:04:11;15.00;99.90
60309;DHT22;50313;52.894;6.492;2022-08-19T00:06:39;15.00;99.90
60309;DHT22;50313;52.894;6.492;2022-08-19T00:09:07;15.00;99.90
60309;DHT22;50313;52.894;6.492;2022-08-19T00:11:34;15.00;99.90
60309;DHT22;50313;52.894;6.492;2022-08-19T00:14:01;15.00;99.90
60309;DHT22;50313;52.894;6.492;2022-08-19T00:16:27;15.00;99.90
60309;DHT22;50313;52.894;6.492;2022-08-19T00:18:56;15.00;99.90
60309;DHT22;50313;52.894;6.492;2022-08-19T00:21:23;15.00;99.90
60309;DHT22;50313;52.894;6.492;2022-08-19T00:23:48;15.00;99.90
60309;DHT22;50313;52.894;6.492;2022-08-19T00:26:14;14.90;99.90
60309;DHT22;50313;52.894;6.492;2022-08-19T00:28:40;14.90;99.90
60309;DHT22;50313;52.894;6.492;2022-08-19T00:31:07;14.80;99.90
60309;DHT22;50313;52.894;6.492;2022-08-19T00:33:34;14.70;99.90
60309;DHT22;50313;52.894;6.492;2022-08-19T00:36:01;14.80;99.90
60309;DHT22;50313;52.894;6.492;2022-08-19T00:38:27;14.80;99.90
60309;DHT22;50313;52.894;6.492;2022-08-19T00:40:53;14.80;99.90
60309;DHT22;50313;52.894;6.492;2022-08-19T00:43:22;14.70;99.90
60309;DHT22;50313;52.894;6.492;2022-08-19T00:45:49;14.70;99.90
60309;DHT22;50313;52.894;6.492;2022-08-19T00:48:17;14.70;99.90
60309;DHT22;50313;52.894;6.492;2022-08-19T00:50:44;14.60;99.90
60309;DHT22;50313;52.894;6.492;2022-08-19T00:53:15;14.60;99.90
60309;DHT22;50313;52.894;6.492;2022-08-19T00:55:45;14.60;99.90
60309;DHT22;50313;52.894;6.492;2022-08-19T00:58:15;14.50;99.90
60309;DHT22;50313;52.894;6.492;2022-08-19T01:00:43;14.60;99.90
60309;DHT22;50313;52.894;6.492;2022-08-19T01:03:12;14.60;99.90
60309;DHT22;50313;52.894;6.492;2022-08-19T01:05:40;14.50;99.90
60309;DHT22;50313;52.894;6.492;2022-08-19T01:08:06;14.50;99.90
60309;DHT22;50313;52.894;6.492;2022-08-19T01:10:40;14.50;99.90
60309;DHT22;50313;52.894;6.492;2022-08-19T01:13:07;14.50;99.90
60309;DHT22;50313;52.894;6.492;2022-08-19T01:15:43;14.40;99.90
60309;DHT22;50313;52.894;6.492;2022-08-19T01:18:12;14.40;99.90
60309;DHT22;50313;52.894;6.492;2022-08-19T01:20:39;14.30;99.90
60309;DHT22;50313;52.894;6.492;2022-08-19T01:23:05;14.40;99.90
60309;DHT22;50313;52.894;6.492;2022-08-19T01:25:52;14.40;99.90
60309;DHT22;50313;52.894;6.492;2022-08-19T01:28:26;14.30;99.90
60309;DHT22;50313;52.894;6.492;2022-08-19T01:30:53;14.30;99.90
60309;DHT22;50313;52.894;6.492;2022-08-19T01:33:20;14.30;99.90
60309;DHT22;50313;52.894;6.492;2022-08-19T01:35:47;14.30;99.90
60309;DHT22;50313;52.894;6.492;2022-08-19T01:38:22;14.30;99.90
60309;DHT22;50313;52.894;6.492;2022-08-19T01:40:48;14.20;99.90
60309;DHT22;50313;52.894;6.492;2022-08-19T01:43:15;14.20;99.90
60309;DHT22;50313;52.894;6.492;2022-08-19T01:45:41;14.30;99.90
60309;DHT22;50313;52.894;6.492;2022-08-19T01:48:07;14.20;99.90
60309;DHT22;50313;52.894;6.492;2022-08-19T01:50:34;14.10;99.90
60309;DHT22;50313;52.894;6.492;2022-08-19T01:53:02;14.10;99.90
60309;DHT22;50313;52.894;6.492;2022-08-19T01:55:29;14.10;99.90
60309;DHT22;50313;52.894;6.492;2022-08-19T01:57:58;14.10;99.90
60309;DHT22;50313;52.894;6.492;2022-08-19T02:00:28;14.00;99.90
60309;DHT22;50313;52.894;6.492;2022-08-19T02:02:55;14.10;99.90
60309;DHT22;50313;52.894;6.492;2022-08-19T02:05:21;14.10;99.90
60309;DHT22;50313;52.894;6.492;2022-08-19T02:07:48;14.00;99.90
60309;DHT22;50313;52.894;6.492;2022-08-19T02:10:18;14.00;99.90
60309;DHT22;50313;52.894;6.492;2022-08-19T02:12:44;14.00;99.90
60309;DHT22;50313;52.894;6.492;2022-08-19T02:15:11;13.90;99.90
60309;DHT22;50313;52.894;6.492;2022-08-19T02:17:37;13.90;99.90
60309;DHT22;50313;52.894;6.492;2022-08-19T02:20:03;13.90;99.90
60309;DHT22;50313;52.894;6.492;2022-08-19T02:22:29;13.90;99.90
60309;DHT22;50313;52.894;6.492;2022-08-19T02:24:55;13.80;99.90
60309;DHT22;50313;52.894;6.492;2022-08-19T02:27:22;13.90;99.90
60309;DHT22;50313;52.894;6.492;2022-08-19T02:29:50;13.90;99.90
60309;DHT22;50313;52.894;6.492;2022-08-19T02:32:16;13.90;99.90
60309;DHT22;50313;52.894;6.492;2022-08-19T02:34:43;14.00;99.90
60309;DHT22;50313;52.894;6.492;2022-08-19T02:37:09;14.00;99.90
60309;DHT22;50313;52.894;6.492;2022-08-19T02:39:55;14.00;99.90
60309;DHT22;50313;52.894;6.492;2022-08-19T02:42:21;14.00;99.90
60309;DHT22;50313;52.894;6.492;2022-08-19T02:44:46;14.00;99.90
60309;DHT22;50313;52.894;6.492;2022-08-19T02:47:12;13.90;99.90
60309;DHT22;50313;52.894;6.492;2022-08-19T02:49:39;13.90;99.90
60309;DHT22;50313;52.894;6.492;2022-08-19T02:52:05;13.80;99.90
60309;DHT22;50313;52.894;6.492;2022-08-19T02:54:31;13.80;99.90
60309;DHT22;50313;52.894;6.492;2022-08-19T02:56:56;13.80;99.90
60309;DHT22;50313;52.894;6.492;2022-08-19T02:59:22;13.70;99.90
60309;DHT22;50313;52.894;6.492;2022-08-19T03:01:48;13.70;99.90
60309;DHT22;50313;52.894;6.492;2022-08-19T03:04:15;13.70;99.90
60309;DHT22;50313;52.894;6.492;2022-08-19T03:06:44;13.70;99.90
60309;DHT22;50313;52.894;6.492;2022-08-19T03:09:11;13.60;99.90
60309;DHT22;50313;52.894;6.492;2022-08-19T03:11:37;13.60;99.90
60309;DHT22;50313;52.894;6.492;2022-08-19T03:14:05;13.60;99.90
60309;DHT22;50313;52.894;6.492;2022-08-19T03:16:34;13.60;99.90
60309;DHT22;50313;52.894;6.492;2022-08-19T03:19:01;13.60;99.90
60309;DHT22;50313;52.894;6.492;2022-08-19T03:21:29;13.60;99.90
60309;DHT22;50313;52.894;6.492;2022-08-19T03:24:01;13.60;99.90
60309;DHT22;50313;52.894;6.492;2022-08-19T03:26:27;13.60;99.90
60309;DHT22;50313;52.894;6.492;2022-08-19T03:28:53;13.50;99.90
60309;DHT22;50313;52.894;6.492;2022-08-19T03:31:21;13.50;99.90
60309;DHT22;50313;52.894;6.492;2022-08-19T03:33:50;13.40;99.90
60309;DHT22;50313;52.894;6.492;2022-08-19T03:36:22;13.50;99.90
60309;DHT22;50313;52.894;6.492;2022-08-19T03:38:51;13.50;99.90
60309;DHT22;50313;52.894;6.492;2022-08-19T03:41:32;13.50;99.90
60309;DHT22;50313;52.894;6.492;2022-08-19T03:44:02;13.50;99.90
60309;DHT22;50313;52.894;6.492;2022-08-19T03:46:30;13.50;99.90
60309;DHT22;50313;52.894;6.492;2022-08-19T03:48:58;13.50;99.90
60309;DHT22;50313;52.894;6.492;2022-08-19T03:51:30;13.50;99.90
60309;DHT22;50313;52.894;6.492;2022-08-19T03:53:58;13.50;99.90
60309;DHT22;50313;52.894;6.492;2022-08-19T03:56:25;13.50;99.90
60309;DHT22;50313;52.894;6.492;2022-08-19T03:58:52;13.50;99.90
60309;DHT22;50313;52.894;6.492;2022-08-19T04:01:20;13.50;99.90
60309;DHT22;50313;52.894;6.492;2022-08-19T04:03:46;13.50;99.90
60309;DHT22;50313;52.894;6.492;2022-08-19T04:06:18;13.50;99.90
60309;DHT22;50313;52.894;6.492;2022-08-19T04:08:46;13.50;99.90
60309;DHT22;50313;52.894;6.492;2022-08-19T04:11:14;13.50;99.90
60309;DHT22;50313;52.894;6.492;2022-08-19T04:13:41;13.40;99.90
60309;DHT22;50313;52.894;6.492;2022-08-19T04:16:10;13.40;99.90
60309;DHT22;50313;52.894;6.492;2022-08-19T04:18:37;13.40;99.90
60309;DHT22;50313;52.894;6.492;2022-08-19T04:21:04;13.40;99.90
60309;DHT22;50313;52.894;6.492;2022-08-19T04:23:31;13.40;99.90
60309;DHT22;50313;52.894;6.492;2022-08-19T04:25:57;13.40;99.90
60309;DHT22;50313;52.894;6.492;2022-08-19T04:28:24;13.40;99.90
60309;DHT22;50313;52.894;6.492;2022-08-19T04:30:52;13.40;99.90
60309;DHT22;50313;52.894;6.492;2022-08-19T04:33:21;13.40;99.90
60309;DHT22;50313;52.894;6.492;2022-08-19T04:35:49;13.40;99.90
60309;DHT22;50313;52.894;6.492;2022-08-19T04:38:16;13.40;99.90
60309;DHT22;50313;52.894;6.492;2022-08-19T04:40:45;13.40;99.90
60309;DHT22;50313;52.894;6.492;2022-08-19T04:43:29;13.40;99.90
60309;DHT22;50313;52.894;6.492;2022-08-19T04:45:55;13.40;99.90
60309;DHT22;50313;52.894;6.492;2022-08-19T04:48:22;13.40;99.90
60309;DHT22;50313;52.894;6.492;2022-08-19T04:50:56;13.40;99.90
60309;DHT22;50313;52.894;6.492;2022-08-19T04:53:31;13.30;99.90
60309;DHT22;50313;52.894;6.492;2022-08-19T04:55:59;13.30;99.90
60309;DHT22;50313;52.894;6.492;2022-08-19T04:58:27;13.30;99.90
60309;DHT22;50313;52.894;6.492;2022-08-19T05:00:53;13.20;99.90
60309;DHT22;50313;52.894;6.492;2022-08-19T05:03:20;13.30;99.90
60309;DHT22;50313;52.894;6.492;2022-08-19T05:05:47;13.30;99.90
60309;DHT22;50313;52.894;6.492;2022-08-19T05:08:16;13.30;99.90
60309;DHT22;50313;52.894;6.492;2022-08-19T05:10:47;13.40;99.90
60309;DHT22;50313;52.894;6.492;2022-08-19T05:13:13;13.40;99.90
60309;DHT22;50313;52.894;6.492;2022-08-19T05:15:40;13.40;99.90
60309;DHT22;50313;52.894;6.492;2022-08-19T05:18:06;13.40;99.90
60309;DHT22;50313;52.894;6.492;2022-08-19T05:20:50;13.30;99.90
60309;DHT22;50313;52.894;6.492;2022-08-19T05:23:35;13.40;99.90
60309;DHT22;50313;52.894;6.492;2022-08-19T05:26:00;13.50;99.90
60309;DHT22;50313;52.894;6.492;2022-08-19T05:28:26;13.50;99.90
60309;DHT22;50313;52.894;6.492;2022-08-19T05:30:53;13.60;99.90
60309;DHT22;50313;52.894;6.492;2022-08-19T05:33:21;13.70;99.90
60309;DHT22;50313;52.894;6.492;2022-08-19T05:35:48;13.70;99.90
60309;DHT22;50313;52.894;6.492;2022-08-19T05:38:16;13.80;99.90
60309;DHT22;50313;52.894;6.492;2022-08-19T05:40:42;14.00;99.90
60309;DHT22;50313;52.894;6.492;2022-08-19T05:43:12;14.10;99.90
60309;DHT22;50313;52.894;6.492;2022-08-19T05:45:41;14.10;99.90
60309;DHT22;50313;52.894;6.492;2022-08-19T05:48:08;14.20;99.90
60309;DHT22;50313;52.894;6.492;2022-08-19T05:50:37;14.30;99.90
60309;DHT22;50313;52.894;6.492;2022-08-19T05:53:04;14.50;99.90
60309;DHT22;50313;52.894;6.492;2022-08-19T05:55:30;14.70;99.90
60309;DHT22;50313;52.894;6.492;2022-08-19T05:57:56;14.80;99.90
60309;DHT22;50313;52.894;6.492;2022-08-19T06:00:22;15.00;99.90
60309;DHT22;50313;52.894;6.492;2022-08-19T06:02:48;15.10;99.90
60309;DHT22;50313;52.894;6.492;2022-08-19T06:05:14;15.30;99.90
60309;DHT22;50313;52.894;6.492;2022-08-19T06:07:40;15.30;99.90
60309;DHT22;50313;52.894;6.492;2022-08-19T06:10:08;15.40;99.90
60309;DHT22;50313;52.894;6.492;2022-08-19T06:12:35;15.60;99.90
60309;DHT22;50313;52.894;6.492;2022-08-19T06:15:12;15.70;99.90
60309;DHT22;50313;52.894;6.492;2022-08-19T06:17:39;15.80;99.90
60309;DHT22;50313;52.894;6.492;2022-08-19T06:20:08;16.00;99.90
60309;DHT22;50313;52.894;6.492;2022-08-19T06:22:42;16.10;99.90
60309;DHT22;50313;52.894;6.492;2022-08-19T06:25:08;16.20;99.90
60309;DHT22;50313;52.894;6.492;2022-08-19T06:27:35;16.30;99.90
60309;DHT22;50313;52.894;6.492;2022-08-19T06:30:03;16.50;99.90
60309;DHT22;50313;52.894;6.492;2022-08-19T06:32:28;16.60;99.90
60309;DHT22;50313;52.894;6.492;2022-08-19T06:34:54;16.70;99.90
60309;DHT22;50313;52.894;6.492;2022-08-19T06:37:20;16.70;99.90
60309;DHT22;50313;52.894;6.492;2022-08-19T06:39:47;16.90;99.90
60309;DHT22;50313;52.894;6.492;2022-08-19T06:42:13;16.90;99.90
60309;DHT22;50313;52.894;6.492;2022-08-19T06:44:43;17.00;99.90
60309;DHT22;50313;52.894;6.492;2022-08-19T06:47:12;17.20;99.90
60309;DHT22;50313;52.894;6.492;2022-08-19T06:49:38;17.40;99.90
60309;DHT22;50313;52.894;6.492;2022-08-19T06:52:04;17.50;99.90
60309;DHT22;50313;52.894;6.492;2022-08-19T06:54:31;17.70;99.90
60309;DHT22;50313;52.894;6.492;2022-08-19T06:56:58;17.70;99.90
60309;DHT22;50313;52.894;6.492;2022-08-19T06:59:27;17.80;99.90
60309;DHT22;50313;52.894;6.492;2022-08-19T07:01:56;18.00;99.90
60309;DHT22;50313;52.894;6.492;2022-08-19T07:04:24;18.20;99.90
60309;DHT22;50313;52.894;6.492;2022-08-19T07:07:00;18.40;99.90
60309;DHT22;50313;52.894;6.492;2022-08-19T07:09:27;18.60;99.90
60309;DHT22;50313;52.894;6.492;2022-08-19T07:11:53;18.80;99.90
60309;DHT22;50313;52.894;6.492;2022-08-19T07:14:22;18.90;99.90
60309;DHT22;50313;52.894;6.492;2022-08-19T07:16:51;19.10;99.90
60309;DHT22;50313;52.894;6.492;2022-08-19T07:19:18;19.30;99.90
60309;DHT22;50313;52.894;6.492;2022-08-19T07:21:46;19.40;99.90
60309;DHT22;50313;52.894;6.492;2022-08-19T07:24:11;19.50;99.90
60309;DHT22;50313;52.894;6.492;2022-08-19T07:26:41;19.60;99.90
60309;DHT22;50313;52.894;6.492;2022-08-19T07:29:07;19.70;99.90
60309;DHT22;50313;52.894;6.492;2022-08-19T07:31:33;19.80;99.90
60309;DHT22;50313;52.894;6.492;2022-08-19T07:34:04;19.80;99.90
60309;DHT22;50313;52.894;6.492;2022-08-19T07:36:32;20.00;99.90
60309;DHT22;50313;52.894;6.492;2022-08-19T07:39:01;20.20;99.90
60309;DHT22;50313;52.894;6.492;2022-08-19T07:41:28;20.30;99.90
60309;DHT22;50313;52.894;6.492;2022-08-19T07:43:57;20.50;99.90
60309;DHT22;50313;52.894;6.492;2022-08-19T07:46:23;20.60;99.90
60309;DHT22;50313;52.894;6.492;2022-08-19T07:48:50;20.70;99.90
60309;DHT22;50313;52.894;6.492;2022-08-19T07:51:19;20.80;99.90
60309;DHT22;50313;52.894;6.492;2022-08-19T07:53:47;21.00;99.90
60309;DHT22;50313;52.894;6.492;2022-08-19T07:56:14;20.90;99.90
60309;DHT22;50313;52.894;6.492;2022-08-19T07:58:44;21.10;99.90
60309;DHT22;50313;52.894;6.492;2022-08-19T08:01:13;21.10;99.90
60309;DHT22;50313;52.894;6.492;2022-08-19T08:03:39;21.20;99.90
60309;DHT22;50313;52.894;6.492;2022-08-19T08:06:23;21.30;99.90
60309;DHT22;50313;52.894;6.492;2022-08-19T08:09:08;21.30;99.90
60309;DHT22;50313;52.894;6.492;2022-08-19T08:11:43;21.60;99.90
60309;DHT22;50313;52.894;6.492;2022-08-19T08:14:17;21.60;99.90
60309;DHT22;50313;52.894;6.492;2022-08-19T08:16:42;21.70;99.90
60309;DHT22;50313;52.894;6.492;2022-08-19T08:19:09;21.80;99.90
60309;DHT22;50313;52.894;6.492;2022-08-19T08:21:35;22.00;99.90
60309;DHT22;50313;52.894;6.492;2022-08-19T08:24:01;22.10;99.90
60309;DHT22;50313;52.894;6.492;2022-08-19T08:26:27;22.10;99.90
60309;DHT22;50313;52.894;6.492;2022-08-19T08:28:53;22.10;99.90
60309;DHT22;50313;52.894;6.492;2022-08-19T08:31:19;22.10;99.90
60309;DHT22;50313;52.894;6.492;2022-08-19T08:33:45;22.20;99.90
60309;DHT22;50313;52.894;6.492;2022-08-19T08:36:12;22.40;99.90
60309;DHT22;50313;52.894;6.492;2022-08-19T08:38:40;22.50;99.90
60309;DHT22;50313;52.894;6.492;2022-08-19T08:43:50;22.70;99.90
60309;DHT22;50313;52.894;6.492;2022-08-19T08:46:48;22.80;99.90
60309;DHT22;50313;52.894;6.492;2022-08-19T08:49:41;22.80;99.90
60309;DHT22;50313;52.894;6.492;2022-08-19T08:52:25;22.80;99.90
60309;DHT22;50313;52.894;6.492;2022-08-19T08:54:54;23.00;99.90
60309;DHT22;50313;52.894;6.492;2022-08-19T08:57:35;23.10;99.90
60309;DHT22;50313;52.894;6.492;2022-08-19T09:00:06;23.10;99.90
60309;DHT22;50313;52.894;6.492;2022-08-19T09:02:33;23.20;99.90
60309;DHT22;50313;52.894;6.492;2022-08-19T09:04:58;23.30;99.90
60309;DHT22;50313;52.894;6.492;2022-08-19T09:10:01;23.30;99.90
60309;DHT22;50313;52.894;6.492;2022-08-19T09:15:37;23.50;99.90
60309;DHT22;50313;52.894;6.492;2022-08-19T09:18:04;23.70;99.90
60309;DHT22;50313;52.894;6.492;2022-08-19T09:20:30;23.80;99.90
60309;DHT22;50313;52.894;6.492;2022-08-19T09:22:57;23.90;99.90
60309;DHT22;50313;52.894;6.492;2022-08-19T09:25:23;23.90;99.90
60309;DHT22;50313;52.894;6.492;2022-08-19T09:27:51;23.90;99.90
60309;DHT22;50313;52.894;6.492;2022-08-19T09:30:27;23.90;99.90
60309;DHT22;50313;52.894;6.492;2022-08-19T09:32:53;24.00;99.90
60309;DHT22;50313;52.894;6.492;2022-08-19T09:35:22;23.90;99.90
60309;DHT22;50313;52.894;6.492;2022-08-19T09:37:49;23.90;99.90
60309;DHT22;50313;52.894;6.492;2022-08-19T09:40:15;24.20;99.90
60309;DHT22;50313;52.894;6.492;2022-08-19T09:42:42;24.20;99.90
60309;DHT22;50313;52.894;6.492;2022-08-19T09:45:09;24.30;99.90
60309;DHT22;50313;52.894;6.492;2022-08-19T09:47:35;24.20;99.90
60309;DHT22;50313;52.894;6.492;2022-08-19T09:50:05;24.30;99.90
60309;DHT22;50313;52.894;6.492;2022-08-19T09:52:32;24.60;99.90
60309;DHT22;50313;52.894;6.492;2022-08-19T09:54:58;24.60;99.90
60309;DHT22;50313;52.894;6.492;2022-08-19T09:57:24;24.70;99.90
60309;DHT22;50313;52.894;6.492;2022-08-19T09:59:50;25.00;99.90
60309;DHT22;50313;52.894;6.492;2022-08-19T10:02:15;25.00;99.90
60309;DHT22;50313;52.894;6.492;2022-08-19T10:04:41;25.10;99.90
60309;DHT22;50313;52.894;6.492;2022-08-19T10:07:30;25.10;99.90
60309;DHT22;50313;52.894;6.492;2022-08-19T10:09:56;25.00;99.90
60309;DHT22;50313;52.894;6.492;2022-08-19T10:12:22;25.10;99.90
60309;DHT22;50313;52.894;6.492;2022-08-19T10:14:48;25.10;99.90
60309;DHT22;50313;52.894;6.492;2022-08-19T10:17:14;25.00;99.90
60309;DHT22;50313;52.894;6.492;2022-08-19T10:19:40;25.20;99.90
60309;DHT22;50313;52.894;6.492;2022-08-19T10:22:06;25.50;99.90
60309;DHT22;50313;52.894;6.492;2022-08-19T10:24:33;25.40;99.90
60309;DHT22;50313;52.894;6.492;2022-08-19T10:27:00;25.40;99.90
60309;DHT22;50313;52.894;6.492;2022-08-19T10:29:29;25.30;99.90
60309;DHT22;50313;52.894;6.492;2022-08-19T10:31:55;25.70;99.90
60309;DHT22;50313;52.894;6.492;2022-08-19T10:34:23;25.70;99.90
60309;DHT22;50313;52.894;6.492;2022-08-19T10:36:48;25.90;99.90
60309;DHT22;50313;52.894;6.492;2022-08-19T10:39:15;25.90;99.90
60309;DHT22;50313;52.894;6.492;2022-08-19T10:41:40;25.70;99.70
60309;DHT22;50313;52.894;6.492;2022-08-19T10:44:10;25.80;99.90
60309;DHT22;50313;52.894;6.492;2022-08-19T10:46:41;25.80;98.80
60309;DHT22;50313;52.894;6.492;2022-08-19T10:49:09;25.90;99.40
60309;DHT22;50313;52.894;6.492;2022-08-19T10:51:35;26.00;99.90
60309;DHT22;50313;52.894;6.492;2022-08-19T10:54:20;25.90;99.30
60309;DHT22;50313;52.894;6.492;2022-08-19T10:56:46;26.00;99.90
60309;DHT22;50313;52.894;6.492;2022-08-19T10:59:23;26.20;99.90
60309;DHT22;50313;52.894;6.492;2022-08-19T11:01:50;26.20;99.90
60309;DHT22;50313;52.894;6.492;2022-08-19T11:04:18;26.10;99.50
60309;DHT22;50313;52.894;6.492;2022-08-19T11:06:46;26.10;99.10
60309;DHT22;50313;52.894;6.492;2022-08-19T11:09:14;26.10;99.10
60309;DHT22;50313;52.894;6.492;2022-08-19T11:11:41;26.20;99.90
60309;DHT22;50313;52.894;6.492;2022-08-19T11:14:13;26.30;99.80
60309;DHT22;50313;52.894;6.492;2022-08-19T11:16:40;26.50;99.90
60309;DHT22;50313;52.894;6.492;2022-08-19T11:19:08;26.60;99.90
60309;DHT22;50313;52.894;6.492;2022-08-19T11:21:37;26.60;99.30
60309;DHT22;50313;52.894;6.492;2022-08-19T11:24:07;26.20;99.60
60309;DHT22;50313;52.894;6.492;2022-08-19T11:26:34;26.20;99.70
60309;DHT22;50313;52.894;6.492;2022-08-19T11:29:01;26.10;99.00
60309;DHT22;50313;52.894;6.492;2022-08-19T11:31:30;26.20;99.90
60309;DHT22;50313;52.894;6.492;2022-08-19T11:34:03;26.30;99.30
60309;DHT22;50313;52.894;6.492;2022-08-19T11:36:29;26.40;98.90
60309;DHT22;50313;52.894;6.492;2022-08-19T11:38:56;26.60;99.00
60309;DHT22;50313;52.894;6.492;2022-08-19T11:41:23;26.40;97.10
60309;DHT22;50313;52.894;6.492;2022-08-19T11:43:50;26.80;98.50
60309;DHT22;50313;52.894;6.492;2022-08-19T11:46:19;27.00;97.60
60309;DHT22;50313;52.894;6.492;2022-08-19T11:48:45;27.20;96.80
60309;DHT22;50313;52.894;6.492;2022-08-19T11:51:19;27.10;95.40
60309;DHT22;50313;52.894;6.492;2022-08-19T11:53:46;27.10;95.00
60309;DHT22;50313;52.894;6.492;2022-08-19T11:56:12;27.20;95.70
60309;DHT22;50313;52.894;6.492;2022-08-19T11:58:38;27.10;96.00
60309;DHT22;50313;52.894;6.492;2022-08-19T12:01:08;27.20;95.90
60309;DHT22;50313;52.894;6.492;2022-08-19T12:03:36;27.60;96.70
60309;DHT22;50313;52.894;6.492;2022-08-19T12:06:06;27.80;97.10
60309;DHT22;50313;52.894;6.492;2022-08-19T12:08:32;27.80;95.40
60309;DHT22;50313;52.894;6.492;2022-08-19T12:10:57;27.70;96.20
60309;DHT22;50313;52.894;6.492;2022-08-19T12:13:25;27.50;94.60
60309;DHT22;50313;52.894;6.492;2022-08-19T12:15:51;27.50;94.80
60309;DHT22;50313;52.894;6.492;2022-08-19T12:18:18;27.30;93.70
60309;DHT22;50313;52.894;6.492;2022-08-19T12:20:44;27.50;94.60
60309;DHT22;50313;52.894;6.492;2022-08-19T12:23:11;27.60;94.50
60309;DHT22;50313;52.894;6.492;2022-08-19T12:25:43;27.70;94.20
60309;DHT22;50313;52.894;6.492;2022-08-19T12:28:20;27.80;92.60
60309;DHT22;50313;52.894;6.492;2022-08-19T12:30:47;27.90;91.90
60309;DHT22;50313;52.894;6.492;2022-08-19T12:33:14;27.80;93.00
60309;DHT22;50313;52.894;6.492;2022-08-19T12:35:44;27.90;93.40
60309;DHT22;50313;52.894;6.492;2022-08-19T12:38:11;28.00;93.30
60309;DHT22;50313;52.894;6.492;2022-08-19T12:40:37;28.00;93.80
60309;DHT22;50313;52.894;6.492;2022-08-19T12:43:06;27.90;94.20
60309;DHT22;50313;52.894;6.492;2022-08-19T12:45:32;27.70;93.50
60309;DHT22;50313;52.894;6.492;2022-08-19T12:47:58;27.80;93.50
60309;DHT22;50313;52.894;6.492;2022-08-19T12:50:24;27.90;93.80
60309;DHT22;50313;52.894;6.492;2022-08-19T12:52:50;27.80;93.50
60309;DHT22;50313;52.894;6.492;2022-08-19T12:55:16;27.90;94.00
60309;DHT22;50313;52.894;6.492;2022-08-19T12:57:44;27.80;92.70
60309;DHT22;50313;52.894;6.492;2022-08-19T13:00:13;28.10;93.60
60309;DHT22;50313;52.894;6.492;2022-08-19T13:02:40;28.00;92.80
60309;DHT22;50313;52.894;6.492;2022-08-19T13:05:09;28.20;93.30
60309;DHT22;50313;52.894;6.492;2022-08-19T13:07:37;28.10;93.50
60309;DHT22;50313;52.894;6.492;2022-08-19T13:10:05;27.90;93.50
60309;DHT22;50313;52.894;6.492;2022-08-19T13:12:31;28.10;94.30
60309;DHT22;50313;52.894;6.492;2022-08-19T13:14:57;28.20;93.80
60309;DHT22;50313;52.894;6.492;2022-08-19T13:17:23;27.70;93.10
60309;DHT22;50313;52.894;6.492;2022-08-19T13:19:49;27.90;92.40
60309;DHT22;50313;52.894;6.492;2022-08-19T13:22:16;27.80;91.60
60309;DHT22;50313;52.894;6.492;2022-08-19T13:24:42;27.70;92.40
60309;DHT22;50313;52.894;6.492;2022-08-19T13:27:08;27.70;93.50
60309;DHT22;50313;52.894;6.492;2022-08-19T13:29:34;27.70;93.70
60309;DHT22;50313;52.894;6.492;2022-08-19T13:32:18;27.50;93.90
60309;DHT22;50313;52.894;6.492;2022-08-19T13:35:03;27.50;94.30
60309;DHT22;50313;52.894;6.492;2022-08-19T13:37:29;27.60;94.70
60309;DHT22;50313;52.894;6.492;2022-08-19T13:40:18;27.50;95.30
60309;DHT22;50313;52.894;6.492;2022-08-19T13:42:46;27.70;95.20
60309;DHT22;50313;52.894;6.492;2022-08-19T13:45:13;27.20;94.70
60309;DHT22;50313;52.894;6.492;2022-08-19T13:47:41;27.10;95.00
60309;DHT22;50313;52.894;6.492;2022-08-19T13:50:16;26.80;95.10
60309;DHT22;50313;52.894;6.492;2022-08-19T13:52:42;26.80;94.20
60309;DHT22;50313;52.894;6.492;2022-08-19T13:55:09;26.60;95.70
60309;DHT22;50313;52.894;6.492;2022-08-19T13:57:36;26.50;96.80
60309;DHT22;50313;52.894;6.492;2022-08-19T14:00:13;26.40;97.10
60309;DHT22;50313;52.894;6.492;2022-08-19T14:02:39;26.30;97.20
60309;DHT22;50313;52.894;6.492;2022-08-19T14:05:10;26.20;97.60
60309;DHT22;50313;52.894;6.492;2022-08-19T14:07:37;26.20;98.20
60309;DHT22;50313;52.894;6.492;2022-08-19T14:10:05;26.10;98.80
60309;DHT22;50313;52.894;6.492;2022-08-19T14:12:32;26.10;98.60
60309;DHT22;50313;52.894;6.492;2022-08-19T14:14:58;25.70;99.60
60309;DHT22;50313;52.894;6.492;2022-08-19T14:17:24;25.50;99.90
60309;DHT22;50313;52.894;6.492;2022-08-19T14:19:59;25.40;99.90
60309;DHT22;50313;52.894;6.492;2022-08-19T14:22:28;25.40;99.90
60309;DHT22;50313;52.894;6.492;2022-08-19T14:24:53;25.40;99.90
60309;DHT22;50313;52.894;6.492;2022-08-19T14:27:19;25.30;99.90
60309;DHT22;50313;52.894;6.492;2022-08-19T14:29:45;25.40;99.90
60309;DHT22;50313;52.894;6.492;2022-08-19T14:32:11;25.20;99.90
60309;DHT22;50313;52.894;6.492;2022-08-19T14:34:37;25.20;99.90
60309;DHT22;50313;52.894;6.492;2022-08-19T14:37:03;25.10;99.90
60309;DHT22;50313;52.894;6.492;2022-08-19T14:39:29;25.20;99.90
60309;DHT22;50313;52.894;6.492;2022-08-19T14:41:55;25.00;99.90
60309;DHT22;50313;52.894;6.492;2022-08-19T14:44:21;25.10;99.90
60309;DHT22;50313;52.894;6.492;2022-08-19T14:46:48;25.00;99.90
60309;DHT22;50313;52.894;6.492;2022-08-19T14:49:13;25.10;99.90
60309;DHT22;50313;52.894;6.492;2022-08-19T14:51:40;25.20;99.90
60309;DHT22;50313;52.894;6.492;2022-08-19T14:54:06;25.20;99.90
60309;DHT22;50313;52.894;6.492;2022-08-19T14:56:32;25.50;99.90
60309;DHT22;50313;52.894;6.492;2022-08-19T14:58:58;25.70;99.90
60309;DHT22;50313;52.894;6.492;2022-08-19T15:01:27;26.10;99.90
60309;DHT22;50313;52.894;6.492;2022-08-19T15:03:53;26.20;99.90
60309;DHT22;50313;52.894;6.492;2022-08-19T15:06:21;25.90;99.90
60309;DHT22;50313;52.894;6.492;2022-08-19T15:08:48;25.70;99.90
60309;DHT22;50313;52.894;6.492;2022-08-19T15:11:18;25.50;99.90
60309;DHT22;50313;52.894;6.492;2022-08-19T15:13:47;25.50;99.90
60309;DHT22;50313;52.894;6.492;2022-08-19T15:16:13;25.50;99.90
60309;DHT22;50313;52.894;6.492;2022-08-19T15:18:42;25.40;99.90
60309;DHT22;50313;52.894;6.492;2022-08-19T15:21:11;25.30;99.90
60309;DHT22;50313;52.894;6.492;2022-08-19T15:23:38;25.20;99.90
60309;DHT22;50313;52.894;6.492;2022-08-19T15:26:04;25.30;99.90
60309;DHT22;50313;52.894;6.492;2022-08-19T15:28:31;25.20;99.90
60309;DHT22;50313;52.894;6.492;2022-08-19T15:30:58;25.00;99.90
60309;DHT22;50313;52.894;6.492;2022-08-19T15:33:24;24.90;99.90
60309;DHT22;50313;52.894;6.492;2022-08-19T15:35:50;24.90;99.90
60309;DHT22;50313;52.894;6.492;2022-08-19T15:38:17;24.90;99.90
60309;DHT22;50313;52.894;6.492;2022-08-19T15:40:48;24.90;99.90
60309;DHT22;50313;52.894;6.492;2022-08-19T15:43:15;25.20;99.90
60309;DHT22;50313;52.894;6.492;2022-08-19T15:45:43;25.20;99.90